Polk City, Florida
Current Conditions -  °F | °C
As of 12:53 PM on Friday 24 Oct 2014 (Local Time) from KGIF Reporting Station
Broken Clouds Broken Clouds  
Wind Chill: 80°   Ceiling: 4200
Heat Index: 81°   Visibility: 10mi
Dew Point: 59°   Wind: 12mph
Humidity: 48%   Direction: 20°NNE
Pressure: 29.98"   Gusts: NA
Location:  28.18°N, 81.82°W
Report Text: KGIF 241653Z AUTO 02010KT 10SM BKN042 27/15 A2998 RMK AO2 SLP151 T02670150
Loading
Personal Weather Stations






























Interactive Weather Map
Tropical Storm Tracking
New forecast layout! Learn more

10-Day Weather Forecast

Advertisements
Track Severe Weather on mobile